This is the latest recevied weather packets stored in our database for station/object 9W2SSS-1. If no packets are shown the sender has not sent any weather packets the latest 10 day(s).
| Time | Temp. | Humidity | Pressure | Rain* | Wind** | Luminosity | Snow |
|---|---|---|---|---|---|---|---|
| 1777616595 | 33.89° C | 56% | 1008.2 hPa | - | - | - | - |
| 1777615395 | 34.44° C | 53% | 1008.4 hPa | - | - | - | - |
| 1777614195 | 33.89° C | 53% | 1008.7 hPa | - | - | - | - |
| 1777612995 | 33.89° C | 54% | 1008.9 hPa | - | - | - | - |
| 1777611795 | 33.33° C | 57% | 1009.1 hPa | - | - | - | - |
| 1777610595 | 35° C | 55% | 1009.6 hPa | - | - | - | - |
| 1777609395 | 36.67° C | 47% | 1009.1 hPa | - | - | - | - |
| 1777608195 | 38.33° C | 42% | 1009.2 hPa | - | - | - | - |
| 1777606995 | 37.22° C | 44% | 1009.6 hPa | - | - | - | - |
| 1777605795 | 40° C | 37% | 1010 hPa | - | - | - | - |
| 1777604595 | 41.67° C | 35% | 1009.9 hPa | - | - | - | - |
| 1777603395 | 41.67° C | 36% | 1010.1 hPa | - | - | - | - |
| 1777602194 | 41.11° C | 38% | 1010.1 hPa | - | - | - | - |
| 1777600995 | 40.56° C | 39% | 1009.9 hPa | - | - | - | - |
| 1777599795 | 41.11° C | 38% | 1009.7 hPa | - | - | - | - |
| 1777598593 | 40° C | 41% | 1009.8 hPa | - | - | - | - |
| 1777597393 | 39.44° C | 41% | 1009.6 hPa | - | - | - | - |
| 1777596193 | 38.33° C | 45% | 1009.5 hPa | - | - | - | - |
| 1777594993 | 36.67° C | 48% | 1009.2 hPa | - | - | - | - |
| 1777593793 | 33.89° C | 56% | 1009 hPa | - | - | - | - |
| 1777592593 | 31.11° C | 63% | 1008.7 hPa | - | - | - | - |
| 1777591393 | 30.56° C | 64% | 1008.8 hPa | - | - | - | - |
| 1777590193 | 30.56° C | 64% | 1008.7 hPa | - | - | - | - |
| 1777587794 | 30° C | 64% | 1008.4 hPa | - | - | - | - |
| 1777586595 | 30° C | 63% | 1008.4 hPa | - | - | - | - |
* Rain since midnight (hover to see other rain measurements)
** Current wind speed in m/s (hover to see current wind gust speed)